sensor_id;sensor_type;location;lat;lon;timestamp;P1;durP1;ratioP1;P2;durP2;ratioP2
21979;SDS011;11154;48.558;9.234;2023-07-24T00:01:31;13.10;;;7.30;;
21979;SDS011;11154;48.558;9.234;2023-07-24T00:03:33;9.13;;;6.45;;
21979;SDS011;11154;48.558;9.234;2023-07-24T00:05:36;10.52;;;6.45;;
21979;SDS011;11154;48.558;9.234;2023-07-24T00:07:37;9.38;;;6.43;;
21979;SDS011;11154;48.558;9.234;2023-07-24T00:09:42;8.90;;;6.47;;
21979;SDS011;11154;48.558;9.234;2023-07-24T00:11:46;12.70;;;6.65;;
21979;SDS011;11154;48.558;9.234;2023-07-24T00:13:48;9.35;;;6.40;;
21979;SDS011;11154;48.558;9.234;2023-07-24T00:15:51;9.95;;;6.47;;
21979;SDS011;11154;48.558;9.234;2023-07-24T00:17:53;10.63;;;6.53;;
21979;SDS011;11154;48.558;9.234;2023-07-24T00:19:55;11.10;;;6.85;;
21979;SDS011;11154;48.558;9.234;2023-07-24T00:21:57;14.88;;;7.20;;
21979;SDS011;11154;48.558;9.234;2023-07-24T00:23:59;14.43;;;7.55;;
21979;SDS011;11154;48.558;9.234;2023-07-24T00:26:01;10.43;;;6.70;;
21979;SDS011;11154;48.558;9.234;2023-07-24T00:28:07;9.93;;;6.55;;
21979;SDS011;11154;48.558;9.234;2023-07-24T00:30:09;9.57;;;6.75;;
21979;SDS011;11154;48.558;9.234;2023-07-24T00:32:11;11.68;;;7.13;;
21979;SDS011;11154;48.558;9.234;2023-07-24T00:34:13;10.50;;;6.78;;
21979;SDS011;11154;48.558;9.234;2023-07-24T00:36:16;9.13;;;6.55;;
21979;SDS011;11154;48.558;9.234;2023-07-24T00:38:17;10.82;;;6.75;;
21979;SDS011;11154;48.558;9.234;2023-07-24T00:40:20;12.60;;;7.07;;
21979;SDS011;11154;48.558;9.234;2023-07-24T00:42:22;10.50;;;7.00;;
21979;SDS011;11154;48.558;9.234;2023-07-24T00:44:25;11.18;;;7.07;;
21979;SDS011;11154;48.558;9.234;2023-07-24T00:46:27;11.20;;;7.53;;
21979;SDS011;11154;48.558;9.234;2023-07-24T00:48:32;11.45;;;7.10;;
21979;SDS011;11154;48.558;9.234;2023-07-24T00:50:33;10.40;;;6.57;;
21979;SDS011;11154;48.558;9.234;2023-07-24T00:52:37;12.05;;;7.22;;
21979;SDS011;11154;48.558;9.234;2023-07-24T00:54:39;12.15;;;7.00;;
21979;SDS011;11154;48.558;9.234;2023-07-24T00:56:40;9.60;;;6.10;;
21979;SDS011;11154;48.558;9.234;2023-07-24T00:58:42;10.10;;;7.07;;
21979;SDS011;11154;48.558;9.234;2023-07-24T01:00:45;9.90;;;7.07;;
21979;SDS011;11154;48.558;9.234;2023-07-24T01:02:47;9.35;;;6.65;;
21979;SDS011;11154;48.558;9.234;2023-07-24T01:04:49;11.35;;;6.57;;
21979;SDS011;11154;48.558;9.234;2023-07-24T01:06:51;8.60;;;6.72;;
21979;SDS011;11154;48.558;9.234;2023-07-24T01:08:51;12.45;;;7.80;;
21979;SDS011;11154;48.558;9.234;2023-07-24T01:10:53;10.30;;;6.80;;
21979;SDS011;11154;48.558;9.234;2023-07-24T01:12:58;10.07;;;6.60;;
21979;SDS011;11154;48.558;9.234;2023-07-24T01:15:12;9.85;;;7.15;;
21979;SDS011;11154;48.558;9.234;2023-07-24T01:17:20;9.32;;;6.68;;
21979;SDS011;11154;48.558;9.234;2023-07-24T01:19:29;11.57;;;6.55;;
21979;SDS011;11154;48.558;9.234;2023-07-24T01:21:39;12.98;;;6.97;;
21979;SDS011;11154;48.558;9.234;2023-07-24T01:23:55;14.05;;;7.18;;
21979;SDS011;11154;48.558;9.234;2023-07-24T01:26:05;9.35;;;6.40;;
21979;SDS011;11154;48.558;9.234;2023-07-24T01:28:09;9.00;;;6.32;;
21979;SDS011;11154;48.558;9.234;2023-07-24T01:30:10;13.52;;;7.20;;
21979;SDS011;11154;48.558;9.234;2023-07-24T01:32:13;10.25;;;6.90;;
21979;SDS011;11154;48.558;9.234;2023-07-24T01:34:15;9.60;;;6.75;;
21979;SDS011;11154;48.558;9.234;2023-07-24T01:36:17;9.90;;;6.00;;
21979;SDS011;11154;48.558;9.234;2023-07-24T01:38:19;9.85;;;7.03;;
21979;SDS011;11154;48.558;9.234;2023-07-24T01:40:22;10.77;;;6.65;;
21979;SDS011;11154;48.558;9.234;2023-07-24T01:42:26;8.70;;;7.07;;
21979;SDS011;11154;48.558;9.234;2023-07-24T01:44:29;14.55;;;7.32;;
21979;SDS011;11154;48.558;9.234;2023-07-24T01:46:31;9.70;;;6.20;;
21979;SDS011;11154;48.558;9.234;2023-07-24T01:48:33;10.50;;;7.00;;
21979;SDS011;11154;48.558;9.234;2023-07-24T01:50:34;11.50;;;7.05;;
21979;SDS011;11154;48.558;9.234;2023-07-24T01:52:36;10.57;;;6.65;;
21979;SDS011;11154;48.558;9.234;2023-07-24T01:54:37;10.55;;;6.60;;
21979;SDS011;11154;48.558;9.234;2023-07-24T01:56:39;11.38;;;6.80;;
21979;SDS011;11154;48.558;9.234;2023-07-24T01:58:43;11.63;;;6.97;;
21979;SDS011;11154;48.558;9.234;2023-07-24T02:00:44;15.35;;;7.38;;
21979;SDS011;11154;48.558;9.234;2023-07-24T02:02:46;11.80;;;7.22;;
21979;SDS011;11154;48.558;9.234;2023-07-24T02:04:49;9.35;;;6.38;;
21979;SDS011;11154;48.558;9.234;2023-07-24T02:06:51;10.05;;;6.88;;
21979;SDS011;11154;48.558;9.234;2023-07-24T02:08:52;9.63;;;7.03;;
21979;SDS011;11154;48.558;9.234;2023-07-24T02:10:54;11.93;;;6.65;;
21979;SDS011;11154;48.558;9.234;2023-07-24T02:12:56;11.13;;;7.13;;
21979;SDS011;11154;48.558;9.234;2023-07-24T02:15:00;10.73;;;6.90;;
21979;SDS011;11154;48.558;9.234;2023-07-24T02:17:02;10.43;;;7.07;;
21979;SDS011;11154;48.558;9.234;2023-07-24T02:19:04;9.30;;;6.75;;
21979;SDS011;11154;48.558;9.234;2023-07-24T02:21:07;10.15;;;6.65;;
21979;SDS011;11154;48.558;9.234;2023-07-24T02:23:09;10.70;;;7.18;;
21979;SDS011;11154;48.558;9.234;2023-07-24T02:25:11;12.65;;;7.07;;
21979;SDS011;11154;48.558;9.234;2023-07-24T02:27:24;11.23;;;7.18;;
21979;SDS011;11154;48.558;9.234;2023-07-24T02:29:37;10.00;;;7.00;;
21979;SDS011;11154;48.558;9.234;2023-07-24T02:31:39;10.38;;;7.05;;
21979;SDS011;11154;48.558;9.234;2023-07-24T02:33:41;11.30;;;7.38;;
21979;SDS011;11154;48.558;9.234;2023-07-24T02:35:43;10.23;;;6.65;;
21979;SDS011;11154;48.558;9.234;2023-07-24T02:37:45;10.18;;;6.97;;
21979;SDS011;11154;48.558;9.234;2023-07-24T02:39:46;13.27;;;7.57;;
21979;SDS011;11154;48.558;9.234;2023-07-24T02:41:49;10.80;;;7.07;;
21979;SDS011;11154;48.558;9.234;2023-07-24T02:43:51;12.90;;;7.72;;
21979;SDS011;11154;48.558;9.234;2023-07-24T02:45:53;10.55;;;6.95;;
21979;SDS011;11154;48.558;9.234;2023-07-24T02:47:56;12.73;;;7.47;;
21979;SDS011;11154;48.558;9.234;2023-07-24T02:49:58;9.88;;;6.70;;
21979;SDS011;11154;48.558;9.234;2023-07-24T02:52:00;10.27;;;6.60;;
21979;SDS011;11154;48.558;9.234;2023-07-24T02:54:01;11.65;;;7.25;;
21979;SDS011;11154;48.558;9.234;2023-07-24T02:56:03;9.93;;;6.72;;
21979;SDS011;11154;48.558;9.234;2023-07-24T02:58:05;9.82;;;6.93;;
21979;SDS011;11154;48.558;9.234;2023-07-24T03:00:07;13.07;;;7.60;;
21979;SDS011;11154;48.558;9.234;2023-07-24T03:02:10;11.15;;;6.93;;
21979;SDS011;11154;48.558;9.234;2023-07-24T03:04:14;11.02;;;7.20;;
21979;SDS011;11154;48.558;9.234;2023-07-24T03:06:16;9.63;;;6.90;;
21979;SDS011;11154;48.558;9.234;2023-07-24T03:08:17;10.63;;;7.45;;
21979;SDS011;11154;48.558;9.234;2023-07-24T03:10:19;12.85;;;6.80;;
21979;SDS011;11154;48.558;9.234;2023-07-24T03:12:21;11.23;;;7.65;;
21979;SDS011;11154;48.558;9.234;2023-07-24T03:14:23;10.77;;;7.03;;
21979;SDS011;11154;48.558;9.234;2023-07-24T03:16:24;9.20;;;6.90;;
21979;SDS011;11154;48.558;9.234;2023-07-24T03:18:26;10.98;;;6.90;;
21979;SDS011;11154;48.558;9.234;2023-07-24T03:20:29;9.38;;;6.53;;
21979;SDS011;11154;48.558;9.234;2023-07-24T03:22:31;9.35;;;6.78;;
21979;SDS011;11154;48.558;9.234;2023-07-24T03:24:31;11.73;;;7.25;;
21979;SDS011;11154;48.558;9.234;2023-07-24T03:26:33;9.45;;;6.93;;
21979;SDS011;11154;48.558;9.234;2023-07-24T03:28:35;9.65;;;7.10;;
21979;SDS011;11154;48.558;9.234;2023-07-24T03:30:38;11.15;;;7.10;;
21979;SDS011;11154;48.558;9.234;2023-07-24T03:32:40;8.73;;;6.45;;
21979;SDS011;11154;48.558;9.234;2023-07-24T03:34:42;10.70;;;7.05;;
21979;SDS011;11154;48.558;9.234;2023-07-24T03:36:44;11.25;;;6.38;;
21979;SDS011;11154;48.558;9.234;2023-07-24T03:38:46;10.00;;;6.82;;
21979;SDS011;11154;48.558;9.234;2023-07-24T03:40:47;10.70;;;7.35;;
21979;SDS011;11154;48.558;9.234;2023-07-24T03:42:49;11.70;;;7.22;;
21979;SDS011;11154;48.558;9.234;2023-07-24T03:44:51;11.30;;;7.25;;
21979;SDS011;11154;48.558;9.234;2023-07-24T03:46:53;10.65;;;7.18;;
21979;SDS011;11154;48.558;9.234;2023-07-24T03:48:55;11.02;;;7.07;;
21979;SDS011;11154;48.558;9.234;2023-07-24T03:50:57;10.35;;;7.00;;
21979;SDS011;11154;48.558;9.234;2023-07-24T03:53:01;12.38;;;7.57;;
21979;SDS011;11154;48.558;9.234;2023-07-24T03:55:03;11.55;;;7.28;;
21979;SDS011;11154;48.558;9.234;2023-07-24T03:57:05;10.93;;;6.68;;
21979;SDS011;11154;48.558;9.234;2023-07-24T03:59:07;9.73;;;7.18;;
21979;SDS011;11154;48.558;9.234;2023-07-24T04:01:09;12.98;;;7.00;;
21979;SDS011;11154;48.558;9.234;2023-07-24T04:03:10;13.30;;;7.53;;
21979;SDS011;11154;48.558;9.234;2023-07-24T04:05:12;11.80;;;7.95;;
21979;SDS011;11154;48.558;9.234;2023-07-24T04:07:14;9.32;;;6.40;;
21979;SDS011;11154;48.558;9.234;2023-07-24T04:09:17;9.65;;;6.57;;
21979;SDS011;11154;48.558;9.234;2023-07-24T04:11:20;13.82;;;7.03;;
21979;SDS011;11154;48.558;9.234;2023-07-24T04:13:22;10.70;;;7.10;;
21979;SDS011;11154;48.558;9.234;2023-07-24T04:15:24;11.18;;;7.18;;
21979;SDS011;11154;48.558;9.234;2023-07-24T04:17:25;8.82;;;6.93;;
21979;SDS011;11154;48.558;9.234;2023-07-24T04:19:26;12.13;;;6.40;;
21979;SDS011;11154;48.558;9.234;2023-07-24T04:21:28;11.75;;;7.30;;
21979;SDS011;11154;48.558;9.234;2023-07-24T04:23:29;11.00;;;6.93;;
21979;SDS011;11154;48.558;9.234;2023-07-24T04:25:32;9.95;;;6.72;;
21979;SDS011;11154;48.558;9.234;2023-07-24T04:27:34;10.30;;;6.85;;
21979;SDS011;11154;48.558;9.234;2023-07-24T04:29:36;9.10;;;6.65;;
21979;SDS011;11154;48.558;9.234;2023-07-24T04:31:37;10.57;;;6.97;;
21979;SDS011;11154;48.558;9.234;2023-07-24T04:33:39;10.20;;;6.85;;
21979;SDS011;11154;48.558;9.234;2023-07-24T04:35:40;10.85;;;7.40;;
21979;SDS011;11154;48.558;9.234;2023-07-24T04:37:42;10.50;;;6.97;;
21979;SDS011;11154;48.558;9.234;2023-07-24T04:39:43;9.70;;;6.97;;
21979;SDS011;11154;48.558;9.234;2023-07-24T04:41:47;10.43;;;6.97;;
21979;SDS011;11154;48.558;9.234;2023-07-24T04:43:49;10.35;;;6.85;;
21979;SDS011;11154;48.558;9.234;2023-07-24T04:45:50;11.60;;;7.20;;
21979;SDS011;11154;48.558;9.234;2023-07-24T04:47:52;9.32;;;6.72;;
21979;SDS011;11154;48.558;9.234;2023-07-24T04:49:54;10.27;;;7.20;;
21979;SDS011;11154;48.558;9.234;2023-07-24T04:51:55;10.30;;;7.25;;
21979;SDS011;11154;48.558;9.234;2023-07-24T04:53:57;13.38;;;7.32;;
21979;SDS011;11154;48.558;9.234;2023-07-24T04:55:59;11.98;;;7.32;;
21979;SDS011;11154;48.558;9.234;2023-07-24T04:58:02;12.88;;;7.68;;
21979;SDS011;11154;48.558;9.234;2023-07-24T05:00:04;9.20;;;6.97;;
21979;SDS011;11154;48.558;9.234;2023-07-24T05:02:07;11.57;;;6.85;;
21979;SDS011;11154;48.558;9.234;2023-07-24T05:04:09;10.85;;;7.38;;
21979;SDS011;11154;48.558;9.234;2023-07-24T05:06:09;10.52;;;6.95;;
21979;SDS011;11154;48.558;9.234;2023-07-24T05:08:11;10.43;;;7.10;;
21979;SDS011;11154;48.558;9.234;2023-07-24T05:10:13;11.32;;;7.03;;
21979;SDS011;11154;48.558;9.234;2023-07-24T05:12:14;12.85;;;7.68;;
21979;SDS011;11154;48.558;9.234;2023-07-24T05:14:17;10.13;;;7.15;;
21979;SDS011;11154;48.558;9.234;2023-07-24T05:16:19;11.60;;;6.90;;
21979;SDS011;11154;48.558;9.234;2023-07-24T05:18:21;16.13;;;8.45;;
21979;SDS011;11154;48.558;9.234;2023-07-24T05:20:22;11.80;;;7.63;;
21979;SDS011;11154;48.558;9.234;2023-07-24T05:22:24;10.38;;;7.03;;
21979;SDS011;11154;48.558;9.234;2023-07-24T05:24:25;10.98;;;7.35;;
21979;SDS011;11154;48.558;9.234;2023-07-24T05:26:27;9.43;;;6.30;;
21979;SDS011;11154;48.558;9.234;2023-07-24T05:28:29;10.88;;;7.38;;
21979;SDS011;11154;48.558;9.234;2023-07-24T05:30:34;11.60;;;7.03;;
21979;SDS011;11154;48.558;9.234;2023-07-24T05:32:35;10.50;;;6.85;;
21979;SDS011;11154;48.558;9.234;2023-07-24T05:34:37;8.57;;;6.70;;
21979;SDS011;11154;48.558;9.234;2023-07-24T05:36:40;10.18;;;7.28;;
21979;SDS011;11154;48.558;9.234;2023-07-24T05:38:41;11.45;;;7.28;;
21979;SDS011;11154;48.558;9.234;2023-07-24T05:40:43;10.75;;;7.30;;
21979;SDS011;11154;48.558;9.234;2023-07-24T05:42:45;11.43;;;7.18;;
21979;SDS011;11154;48.558;9.234;2023-07-24T05:44:47;11.65;;;6.70;;
21979;SDS011;11154;48.558;9.234;2023-07-24T05:46:50;10.85;;;7.57;;
21979;SDS011;11154;48.558;9.234;2023-07-24T05:48:52;13.45;;;7.57;;
21979;SDS011;11154;48.558;9.234;2023-07-24T05:50:54;11.65;;;7.93;;
21979;SDS011;11154;48.558;9.234;2023-07-24T05:52:55;11.77;;;7.45;;
21979;SDS011;11154;48.558;9.234;2023-07-24T05:54:57;11.75;;;7.32;;
21979;SDS011;11154;48.558;9.234;2023-07-24T05:56:58;10.82;;;7.18;;
21979;SDS011;11154;48.558;9.234;2023-07-24T05:59:00;11.93;;;7.90;;
21979;SDS011;11154;48.558;9.234;2023-07-24T06:01:02;10.13;;;7.28;;
21979;SDS011;11154;48.558;9.234;2023-07-24T06:03:04;13.25;;;7.90;;
21979;SDS011;11154;48.558;9.234;2023-07-24T06:05:06;9.75;;;6.80;;
21979;SDS011;11154;48.558;9.234;2023-07-24T06:07:09;9.65;;;6.78;;
21979;SDS011;11154;48.558;9.234;2023-07-24T06:09:10;10.30;;;7.03;;
21979;SDS011;11154;48.558;9.234;2023-07-24T06:11:11;12.48;;;7.10;;
21979;SDS011;11154;48.558;9.234;2023-07-24T06:13:13;12.48;;;7.72;;
21979;SDS011;11154;48.558;9.234;2023-07-24T06:15:15;10.32;;;7.40;;
21979;SDS011;11154;48.558;9.234;2023-07-24T06:17:16;10.45;;;6.82;;
21979;SDS011;11154;48.558;9.234;2023-07-24T06:19:19;12.80;;;7.68;;
21979;SDS011;11154;48.558;9.234;2023-07-24T06:21:21;10.23;;;6.88;;
21979;SDS011;11154;48.558;9.234;2023-07-24T06:23:23;10.52;;;7.15;;
21979;SDS011;11154;48.558;9.234;2023-07-24T06:25:24;12.52;;;7.75;;
21979;SDS011;11154;48.558;9.234;2023-07-24T06:27:28;11.88;;;7.05;;
21979;SDS011;11154;48.558;9.234;2023-07-24T06:29:29;8.82;;;6.97;;
21979;SDS011;11154;48.558;9.234;2023-07-24T06:31:31;11.68;;;6.85;;
21979;SDS011;11154;48.558;9.234;2023-07-24T06:33:33;11.57;;;7.15;;
21979;SDS011;11154;48.558;9.234;2023-07-24T06:35:36;11.90;;;7.70;;
21979;SDS011;11154;48.558;9.234;2023-07-24T06:37:37;11.32;;;7.05;;
21979;SDS011;11154;48.558;9.234;2023-07-24T06:39:38;11.40;;;7.25;;
21979;SDS011;11154;48.558;9.234;2023-07-24T06:41:40;13.07;;;8.60;;
21979;SDS011;11154;48.558;9.234;2023-07-24T06:43:42;13.00;;;8.07;;
21979;SDS011;11154;48.558;9.234;2023-07-24T06:45:44;10.68;;;7.57;;
21979;SDS011;11154;48.558;9.234;2023-07-24T06:47:45;11.82;;;7.35;;
21979;SDS011;11154;48.558;9.234;2023-07-24T06:49:47;10.20;;;7.10;;
21979;SDS011;11154;48.558;9.234;2023-07-24T06:51:50;11.73;;;7.10;;
21979;SDS011;11154;48.558;9.234;2023-07-24T06:53:51;11.77;;;8.13;;
21979;SDS011;11154;48.558;9.234;2023-07-24T06:55:53;10.40;;;7.07;;
21979;SDS011;11154;48.558;9.234;2023-07-24T06:57:55;10.90;;;6.78;;
21979;SDS011;11154;48.558;9.234;2023-07-24T06:59:56;11.75;;;7.93;;
21979;SDS011;11154;48.558;9.234;2023-07-24T07:01:57;10.55;;;7.45;;
21979;SDS011;11154;48.558;9.234;2023-07-24T07:03:59;11.13;;;7.13;;
21979;SDS011;11154;48.558;9.234;2023-07-24T07:06:00;14.02;;;7.45;;
21979;SDS011;11154;48.558;9.234;2023-07-24T07:08:04;10.15;;;7.38;;
21979;SDS011;11154;48.558;9.234;2023-07-24T07:10:06;11.38;;;7.30;;
21979;SDS011;11154;48.558;9.234;2023-07-24T07:12:08;11.45;;;7.45;;
21979;SDS011;11154;48.558;9.234;2023-07-24T07:14:10;10.57;;;7.35;;
21979;SDS011;11154;48.558;9.234;2023-07-24T07:16:12;13.52;;;7.28;;
21979;SDS011;11154;48.558;9.234;2023-07-24T07:18:16;11.48;;;7.63;;
21979;SDS011;11154;48.558;9.234;2023-07-24T07:20:18;9.95;;;7.53;;
21979;SDS011;11154;48.558;9.234;2023-07-24T07:22:20;12.35;;;7.32;;
21979;SDS011;11154;48.558;9.234;2023-07-24T07:24:23;10.77;;;7.53;;
21979;SDS011;11154;48.558;9.234;2023-07-24T07:26:24;10.68;;;7.70;;
21979;SDS011;11154;48.558;9.234;2023-07-24T07:28:26;11.07;;;8.35;;
21979;SDS011;11154;48.558;9.234;2023-07-24T07:30:28;12.23;;;7.13;;
21979;SDS011;11154;48.558;9.234;2023-07-24T07:32:29;11.45;;;7.30;;
21979;SDS011;11154;48.558;9.234;2023-07-24T07:34:31;12.50;;;8.20;;
21979;SDS011;11154;48.558;9.234;2023-07-24T07:36:34;8.90;;;7.22;;
21979;SDS011;11154;48.558;9.234;2023-07-24T07:38:36;11.57;;;7.80;;
21979;SDS011;11154;48.558;9.234;2023-07-24T07:40:41;12.10;;;8.23;;
21979;SDS011;11154;48.558;9.234;2023-07-24T07:42:42;12.43;;;8.07;;
21979;SDS011;11154;48.558;9.234;2023-07-24T07:44:45;12.32;;;7.25;;
21979;SDS011;11154;48.558;9.234;2023-07-24T07:46:46;11.68;;;7.13;;
21979;SDS011;11154;48.558;9.234;2023-07-24T07:48:48;12.38;;;7.32;;
21979;SDS011;11154;48.558;9.234;2023-07-24T07:50:50;10.52;;;7.55;;
21979;SDS011;11154;48.558;9.234;2023-07-24T07:52:52;11.23;;;7.07;;
21979;SDS011;11154;48.558;9.234;2023-07-24T07:54:54;12.18;;;7.22;;
21979;SDS011;11154;48.558;9.234;2023-07-24T07:56:56;13.50;;;7.78;;
21979;SDS011;11154;48.558;9.234;2023-07-24T07:58:58;11.00;;;7.40;;
21979;SDS011;11154;48.558;9.234;2023-07-24T08:01:02;11.23;;;7.55;;
21979;SDS011;11154;48.558;9.234;2023-07-24T08:03:04;13.43;;;7.35;;
21979;SDS011;11154;48.558;9.234;2023-07-24T08:05:06;13.48;;;7.88;;
21979;SDS011;11154;48.558;9.234;2023-07-24T08:07:08;11.68;;;7.55;;
21979;SDS011;11154;48.558;9.234;2023-07-24T08:09:10;11.90;;;7.05;;
21979;SDS011;11154;48.558;9.234;2023-07-24T08:11:10;11.77;;;7.15;;
21979;SDS011;11154;48.558;9.234;2023-07-24T08:13:14;13.55;;;7.55;;
21979;SDS011;11154;48.558;9.234;2023-07-24T08:15:15;13.20;;;7.70;;
21979;SDS011;11154;48.558;9.234;2023-07-24T08:17:17;12.88;;;7.60;;
21979;SDS011;11154;48.558;9.234;2023-07-24T08:19:19;12.13;;;7.55;;
21979;SDS011;11154;48.558;9.234;2023-07-24T08:21:21;10.75;;;7.00;;
21979;SDS011;11154;48.558;9.234;2023-07-24T08:23:23;10.73;;;6.53;;
21979;SDS011;11154;48.558;9.234;2023-07-24T08:25:24;9.27;;;6.82;;
21979;SDS011;11154;48.558;9.234;2023-07-24T08:27:26;10.80;;;6.50;;
21979;SDS011;11154;48.558;9.234;2023-07-24T08:29:29;14.27;;;6.68;;
21979;SDS011;11154;48.558;9.234;2023-07-24T08:31:31;12.35;;;6.07;;
21979;SDS011;11154;48.558;9.234;2023-07-24T08:33:32;12.02;;;6.22;;
21979;SDS011;11154;48.558;9.234;2023-07-24T08:35:34;10.82;;;6.57;;
21979;SDS011;11154;48.558;9.234;2023-07-24T08:37:35;11.05;;;6.22;;
21979;SDS011;11154;48.558;9.234;2023-07-24T08:39:37;9.55;;;6.55;;
21979;SDS011;11154;48.558;9.234;2023-07-24T08:41:39;9.80;;;6.30;;
21979;SDS011;11154;48.558;9.234;2023-07-24T08:43:41;18.67;;;6.53;;
21979;SDS011;11154;48.558;9.234;2023-07-24T08:45:45;10.27;;;7.05;;
21979;SDS011;11154;48.558;9.234;2023-07-24T08:47:47;11.05;;;6.68;;
21979;SDS011;11154;48.558;9.234;2023-07-24T08:49:48;11.65;;;6.63;;
21979;SDS011;11154;48.558;9.234;2023-07-24T08:51:51;10.98;;;6.43;;
21979;SDS011;11154;48.558;9.234;2023-07-24T08:53:53;9.32;;;6.60;;
21979;SDS011;11154;48.558;9.234;2023-07-24T08:55:55;14.27;;;7.35;;
21979;SDS011;11154;48.558;9.234;2023-07-24T08:57:58;10.45;;;6.30;;
21979;SDS011;11154;48.558;9.234;2023-07-24T09:00:01;10.27;;;6.15;;
21979;SDS011;11154;48.558;9.234;2023-07-24T09:02:06;10.18;;;6.38;;
21979;SDS011;11154;48.558;9.234;2023-07-24T09:04:08;9.52;;;6.35;;
21979;SDS011;11154;48.558;9.234;2023-07-24T09:06:09;11.93;;;6.18;;
21979;SDS011;11154;48.558;9.234;2023-07-24T09:08:11;15.88;;;7.00;;
21979;SDS011;11154;48.558;9.234;2023-07-24T09:10:11;9.57;;;6.70;;
21979;SDS011;11154;48.558;9.234;2023-07-24T09:12:15;12.63;;;7.13;;
21979;SDS011;11154;48.558;9.234;2023-07-24T09:14:21;13.00;;;6.68;;
21979;SDS011;11154;48.558;9.234;2023-07-24T09:16:28;10.75;;;7.00;;
21979;SDS011;11154;48.558;9.234;2023-07-24T09:18:39;11.50;;;6.95;;
21979;SDS011;11154;48.558;9.234;2023-07-24T09:20:42;13.98;;;6.93;;
21979;SDS011;11154;48.558;9.234;2023-07-24T09:22:50;22.83;;;7.55;;
21979;SDS011;11154;48.558;9.234;2023-07-24T09:24:52;10.93;;;6.53;;
21979;SDS011;11154;48.558;9.234;2023-07-24T09:26:55;11.75;;;6.43;;
21979;SDS011;11154;48.558;9.234;2023-07-24T09:28:57;10.68;;;6.55;;
21979;SDS011;11154;48.558;9.234;2023-07-24T09:30:59;9.10;;;6.35;;
21979;SDS011;11154;48.558;9.234;2023-07-24T09:33:01;9.02;;;6.15;;
21979;SDS011;11154;48.558;9.234;2023-07-24T09:35:05;10.45;;;6.32;;
21979;SDS011;11154;48.558;9.234;2023-07-24T09:37:24;10.98;;;6.05;;
21979;SDS011;11154;48.558;9.234;2023-07-24T09:39:27;10.23;;;5.95;;
21979;SDS011;11154;48.558;9.234;2023-07-24T09:41:28;11.30;;;6.05;;
21979;SDS011;11154;48.558;9.234;2023-07-24T09:43:30;8.93;;;6.22;;
21979;SDS011;11154;48.558;9.234;2023-07-24T09:45:32;10.77;;;5.80;;
21979;SDS011;11154;48.558;9.234;2023-07-24T09:47:33;10.60;;;6.25;;
21979;SDS011;11154;48.558;9.234;2023-07-24T09:49:35;11.25;;;6.53;;
21979;SDS011;11154;48.558;9.234;2023-07-24T09:51:38;10.63;;;5.95;;
21979;SDS011;11154;48.558;9.234;2023-07-24T09:53:43;7.55;;;5.40;;
21979;SDS011;11154;48.558;9.234;2023-07-24T09:55:49;10.02;;;6.28;;
21979;SDS011;11154;48.558;9.234;2023-07-24T09:57:55;11.60;;;6.93;;
21979;SDS011;11154;48.558;9.234;2023-07-24T09:59:57;12.68;;;6.07;;
21979;SDS011;11154;48.558;9.234;2023-07-24T10:02:01;10.18;;;7.15;;
21979;SDS011;11154;48.558;9.234;2023-07-24T10:04:04;9.02;;;6.60;;
21979;SDS011;11154;48.558;9.234;2023-07-24T10:06:06;12.57;;;6.50;;
21979;SDS011;11154;48.558;9.234;2023-07-24T10:08:12;8.88;;;6.38;;
21979;SDS011;11154;48.558;9.234;2023-07-24T10:10:15;11.35;;;6.45;;
21979;SDS011;11154;48.558;9.234;2023-07-24T10:12:17;11.32;;;6.57;;
21979;SDS011;11154;48.558;9.234;2023-07-24T10:14:19;8.85;;;6.32;;
21979;SDS011;11154;48.558;9.234;2023-07-24T10:16:22;8.52;;;5.78;;
21979;SDS011;11154;48.558;9.234;2023-07-24T10:18:25;9.45;;;6.25;;
21979;SDS011;11154;48.558;9.234;2023-07-24T10:20:32;9.32;;;6.03;;
21979;SDS011;11154;48.558;9.234;2023-07-24T10:22:34;8.98;;;5.95;;
21979;SDS011;11154;48.558;9.234;2023-07-24T10:24:39;8.32;;;5.78;;
21979;SDS011;11154;48.558;9.234;2023-07-24T10:26:41;9.18;;;6.03;;
21979;SDS011;11154;48.558;9.234;2023-07-24T10:28:46;9.10;;;5.07;;
21979;SDS011;11154;48.558;9.234;2023-07-24T10:30:54;9.15;;;5.50;;
21979;SDS011;11154;48.558;9.234;2023-07-24T10:33:02;8.15;;;5.15;;
21979;SDS011;11154;48.558;9.234;2023-07-24T10:35:06;8.93;;;5.60;;
21979;SDS011;11154;48.558;9.234;2023-07-24T10:37:09;8.40;;;5.47;;
21979;SDS011;11154;48.558;9.234;2023-07-24T10:39:14;6.97;;;4.78;;
21979;SDS011;11154;48.558;9.234;2023-07-24T10:41:18;13.00;;;5.47;;
21979;SDS011;11154;48.558;9.234;2023-07-24T10:43:20;8.38;;;5.57;;
21979;SDS011;11154;48.558;9.234;2023-07-24T10:45:22;10.98;;;5.28;;
21979;SDS011;11154;48.558;9.234;2023-07-24T10:47:24;9.60;;;5.40;;
21979;SDS011;11154;48.558;9.234;2023-07-24T10:49:26;9.57;;;5.95;;
21979;SDS011;11154;48.558;9.234;2023-07-24T10:51:28;8.15;;;4.95;;
21979;SDS011;11154;48.558;9.234;2023-07-24T10:53:34;9.38;;;5.53;;
21979;SDS011;11154;48.558;9.234;2023-07-24T10:55:36;7.65;;;5.25;;
21979;SDS011;11154;48.558;9.234;2023-07-24T10:57:39;9.90;;;4.82;;
21979;SDS011;11154;48.558;9.234;2023-07-24T10:59:41;10.40;;;5.18;;
21979;SDS011;11154;48.558;9.234;2023-07-24T11:01:42;8.23;;;5.30;;
21979;SDS011;11154;48.558;9.234;2023-07-24T11:03:44;8.50;;;5.45;;
21979;SDS011;11154;48.558;9.234;2023-07-24T11:05:47;8.73;;;5.15;;
21979;SDS011;11154;48.558;9.234;2023-07-24T11:07:48;7.57;;;5.10;;
21979;SDS011;11154;48.558;9.234;2023-07-24T11:09:50;9.85;;;5.80;;
21979;SDS011;11154;48.558;9.234;2023-07-24T11:11:53;11.15;;;5.50;;
21979;SDS011;11154;48.558;9.234;2023-07-24T11:13:56;8.52;;;4.93;;
21979;SDS011;11154;48.558;9.234;2023-07-24T11:16:03;9.45;;;5.18;;
21979;SDS011;11154;48.558;9.234;2023-07-24T11:18:05;8.45;;;5.40;;
21979;SDS011;11154;48.558;9.234;2023-07-24T11:20:08;8.18;;;4.72;;
21979;SDS011;11154;48.558;9.234;2023-07-24T11:22:11;6.80;;;4.47;;
21979;SDS011;11154;48.558;9.234;2023-07-24T11:24:13;8.48;;;5.07;;
21979;SDS011;11154;48.558;9.234;2023-07-24T11:26:15;7.43;;;4.82;;
21979;SDS011;11154;48.558;9.234;2023-07-24T11:28:17;9.20;;;5.32;;
21979;SDS011;11154;48.558;9.234;2023-07-24T11:30:20;8.63;;;4.45;;
21979;SDS011;11154;48.558;9.234;2023-07-24T11:32:22;7.10;;;4.57;;
21979;SDS011;11154;48.558;9.234;2023-07-24T11:34:23;6.35;;;4.85;;
21979;SDS011;11154;48.558;9.234;2023-07-24T11:36:26;6.80;;;4.97;;
21979;SDS011;11154;48.558;9.234;2023-07-24T11:38:27;7.90;;;5.25;;
21979;SDS011;11154;48.558;9.234;2023-07-24T11:40:32;7.80;;;5.43;;
21979;SDS011;11154;48.558;9.234;2023-07-24T11:42:39;7.80;;;5.30;;
21979;SDS011;11154;48.558;9.234;2023-07-24T11:44:43;8.35;;;5.75;;
21979;SDS011;11154;48.558;9.234;2023-07-24T11:46:46;8.00;;;5.32;;
21979;SDS011;11154;48.558;9.234;2023-07-24T11:48:48;7.75;;;5.07;;
21979;SDS011;11154;48.558;9.234;2023-07-24T11:50:54;8.02;;;5.13;;
21979;SDS011;11154;48.558;9.234;2023-07-24T11:52:56;7.97;;;5.10;;
21979;SDS011;11154;48.558;9.234;2023-07-24T11:54:58;7.93;;;4.97;;
21979;SDS011;11154;48.558;9.234;2023-07-24T11:57:01;8.65;;;5.07;;
21979;SDS011;11154;48.558;9.234;2023-07-24T11:59:09;6.63;;;4.72;;
21979;SDS011;11154;48.558;9.234;2023-07-24T12:01:12;6.68;;;4.78;;
21979;SDS011;11154;48.558;9.234;2023-07-24T12:03:18;8.43;;;5.30;;
21979;SDS011;11154;48.558;9.234;2023-07-24T12:05:21;6.97;;;4.75;;
21979;SDS011;11154;48.558;9.234;2023-07-24T12:07:23;7.55;;;4.32;;
21979;SDS011;11154;48.558;9.234;2023-07-24T12:09:28;5.13;;;3.97;;
21979;SDS011;11154;48.558;9.234;2023-07-24T12:11:31;6.78;;;4.35;;